sensor_id;sensor_type;location;lat;lon;timestamp;temperature;humidity
25128;DHT22;13107;51.304;6.866;2022-08-01T00:00:56;18.80;99.90
25128;DHT22;13107;51.304;6.866;2022-08-01T00:04:58;18.80;99.90
25128;DHT22;13107;51.304;6.866;2022-08-01T00:09:01;18.80;99.90
25128;DHT22;13107;51.304;6.866;2022-08-01T00:13:03;18.80;99.90
25128;DHT22;13107;51.304;6.866;2022-08-01T00:17:05;18.70;99.90
25128;DHT22;13107;51.304;6.866;2022-08-01T00:21:08;18.70;99.90
25128;DHT22;13107;51.304;6.866;2022-08-01T00:25:10;18.70;99.90
25128;DHT22;13107;51.304;6.866;2022-08-01T00:29:11;18.60;99.90
25128;DHT22;13107;51.304;6.866;2022-08-01T00:33:33;18.70;99.90
25128;DHT22;13107;51.304;6.866;2022-08-01T00:37:35;18.80;99.90
25128;DHT22;13107;51.304;6.866;2022-08-01T00:41:37;18.70;99.90
25128;DHT22;13107;51.304;6.866;2022-08-01T00:45:38;18.60;99.90
25128;DHT22;13107;51.304;6.866;2022-08-01T00:49:40;18.70;99.90
25128;DHT22;13107;51.304;6.866;2022-08-01T00:53:42;18.60;99.90
25128;DHT22;13107;51.304;6.866;2022-08-01T00:58:07;18.60;99.90
25128;DHT22;13107;51.304;6.866;2022-08-01T01:02:13;18.60;99.90
25128;DHT22;13107;51.304;6.866;2022-08-01T01:10:56;18.60;99.90
25128;DHT22;13107;51.304;6.866;2022-08-01T01:15:10;18.60;99.90
25128;DHT22;13107;51.304;6.866;2022-08-01T01:19:17;18.60;99.90
25128;DHT22;13107;51.304;6.866;2022-08-01T01:28:10;18.60;99.90
25128;DHT22;13107;51.304;6.866;2022-08-01T01:32:28;18.60;99.90
25128;DHT22;13107;51.304;6.866;2022-08-01T01:36:35;18.60;99.90
25128;DHT22;13107;51.304;6.866;2022-08-01T01:40:39;18.60;99.90
25128;DHT22;13107;51.304;6.866;2022-08-01T01:44:43;18.50;99.90
25128;DHT22;13107;51.304;6.866;2022-08-01T01:48:46;18.50;99.90
25128;DHT22;13107;51.304;6.866;2022-08-01T01:52:48;18.60;99.90
25128;DHT22;13107;51.304;6.866;2022-08-01T01:56:52;18.50;99.90
25128;DHT22;13107;51.304;6.866;2022-08-01T02:00:56;18.50;99.90
25128;DHT22;13107;51.304;6.866;2022-08-01T02:05:05;18.50;99.90
25128;DHT22;13107;51.304;6.866;2022-08-01T02:09:08;18.40;99.90
25128;DHT22;13107;51.304;6.866;2022-08-01T02:13:20;18.40;99.90
25128;DHT22;13107;51.304;6.866;2022-08-01T02:17:23;18.40;99.90
25128;DHT22;13107;51.304;6.866;2022-08-01T02:21:51;18.40;99.90
25128;DHT22;13107;51.304;6.866;2022-08-01T02:25:55;18.40;99.90
25128;DHT22;13107;51.304;6.866;2022-08-01T02:30:13;18.40;99.90
25128;DHT22;13107;51.304;6.866;2022-08-01T02:34:17;18.40;99.90
25128;DHT22;13107;51.304;6.866;2022-08-01T02:38:23;18.40;99.90
25128;DHT22;13107;51.304;6.866;2022-08-01T02:42:26;18.40;99.90
25128;DHT22;13107;51.304;6.866;2022-08-01T02:46:36;18.40;99.90
25128;DHT22;13107;51.304;6.866;2022-08-01T02:50:42;18.40;99.90
25128;DHT22;13107;51.304;6.866;2022-08-01T02:54:47;18.40;99.90
25128;DHT22;13107;51.304;6.866;2022-08-01T02:58:50;18.40;99.90
25128;DHT22;13107;51.304;6.866;2022-08-01T03:02:54;18.30;99.90
25128;DHT22;13107;51.304;6.866;2022-08-01T03:06:58;18.40;99.90
25128;DHT22;13107;51.304;6.866;2022-08-01T03:11:03;18.40;99.90
25128;DHT22;13107;51.304;6.866;2022-08-01T03:15:07;18.40;99.90
25128;DHT22;13107;51.304;6.866;2022-08-01T03:19:11;18.40;99.90
25128;DHT22;13107;51.304;6.866;2022-08-01T03:23:15;18.40;99.90
25128;DHT22;13107;51.304;6.866;2022-08-01T03:27:19;18.40;99.90
25128;DHT22;13107;51.304;6.866;2022-08-01T03:31:22;18.40;99.90
25128;DHT22;13107;51.304;6.866;2022-08-01T03:35:32;18.50;99.90
25128;DHT22;13107;51.304;6.866;2022-08-01T03:39:44;18.50;99.90
25128;DHT22;13107;51.304;6.866;2022-08-01T03:43:58;18.50;99.90
25128;DHT22;13107;51.304;6.866;2022-08-01T03:48:08;18.50;99.90
25128;DHT22;13107;51.304;6.866;2022-08-01T03:52:11;18.40;99.90
25128;DHT22;13107;51.304;6.866;2022-08-01T03:56:17;18.50;99.90
25128;DHT22;13107;51.304;6.866;2022-08-01T04:00:21;18.40;99.90
25128;DHT22;13107;51.304;6.866;2022-08-01T04:04:23;18.40;99.90
25128;DHT22;13107;51.304;6.866;2022-08-01T04:08:34;18.40;99.90
25128;DHT22;13107;51.304;6.866;2022-08-01T04:12:37;18.40;99.90
25128;DHT22;13107;51.304;6.866;2022-08-01T04:16:38;18.30;99.90
25128;DHT22;13107;51.304;6.866;2022-08-01T04:20:40;18.30;99.90
25128;DHT22;13107;51.304;6.866;2022-08-01T04:24:47;18.40;99.90
25128;DHT22;13107;51.304;6.866;2022-08-01T04:28:58;18.40;99.90
25128;DHT22;13107;51.304;6.866;2022-08-01T04:33:04;18.40;99.90
25128;DHT22;13107;51.304;6.866;2022-08-01T04:37:09;18.30;99.90
25128;DHT22;13107;51.304;6.866;2022-08-01T04:41:14;18.40;99.90
25128;DHT22;13107;51.304;6.866;2022-08-01T04:45:17;18.40;99.90
25128;DHT22;13107;51.304;6.866;2022-08-01T04:49:20;18.50;99.90
25128;DHT22;13107;51.304;6.866;2022-08-01T04:53:22;18.50;99.90
25128;DHT22;13107;51.304;6.866;2022-08-01T04:57:24;18.50;99.90
25128;DHT22;13107;51.304;6.866;2022-08-01T05:01:25;18.50;99.90
25128;DHT22;13107;51.304;6.866;2022-08-01T05:05:27;18.60;99.90
25128;DHT22;13107;51.304;6.866;2022-08-01T05:09:29;18.60;99.90
25128;DHT22;13107;51.304;6.866;2022-08-01T05:13:32;18.60;99.90
25128;DHT22;13107;51.304;6.866;2022-08-01T05:17:33;18.60;99.90
25128;DHT22;13107;51.304;6.866;2022-08-01T05:21:35;18.60;99.90
25128;DHT22;13107;51.304;6.866;2022-08-01T05:25:37;18.60;99.90
25128;DHT22;13107;51.304;6.866;2022-08-01T05:29:58;18.60;99.90
25128;DHT22;13107;51.304;6.866;2022-08-01T05:34:01;18.60;99.90
25128;DHT22;13107;51.304;6.866;2022-08-01T05:38:03;18.50;99.90
25128;DHT22;13107;51.304;6.866;2022-08-01T05:42:05;18.50;99.90
25128;DHT22;13107;51.304;6.866;2022-08-01T05:46:08;18.60;99.90
25128;DHT22;13107;51.304;6.866;2022-08-01T05:50:10;18.60;99.90
25128;DHT22;13107;51.304;6.866;2022-08-01T05:54:11;18.50;99.90
25128;DHT22;13107;51.304;6.866;2022-08-01T05:58:13;18.50;99.90
25128;DHT22;13107;51.304;6.866;2022-08-01T06:02:15;18.60;99.90
25128;DHT22;13107;51.304;6.866;2022-08-01T06:06:16;18.50;99.90
25128;DHT22;13107;51.304;6.866;2022-08-01T06:10:18;18.60;99.90
25128;DHT22;13107;51.304;6.866;2022-08-01T06:14:20;18.60;99.90
25128;DHT22;13107;51.304;6.866;2022-08-01T06:18:22;18.70;99.90
25128;DHT22;13107;51.304;6.866;2022-08-01T06:22:24;18.70;99.90
25128;DHT22;13107;51.304;6.866;2022-08-01T06:26:26;18.70;99.90
25128;DHT22;13107;51.304;6.866;2022-08-01T06:30:27;18.60;99.90
25128;DHT22;13107;51.304;6.866;2022-08-01T06:34:29;18.80;99.90
25128;DHT22;13107;51.304;6.866;2022-08-01T06:38:31;18.80;99.90
25128;DHT22;13107;51.304;6.866;2022-08-01T06:42:33;18.90;99.90
25128;DHT22;13107;51.304;6.866;2022-08-01T06:46:38;19.00;99.90
25128;DHT22;13107;51.304;6.866;2022-08-01T06:50:40;19.10;99.90
25128;DHT22;13107;51.304;6.866;2022-08-01T06:54:42;19.20;99.90
25128;DHT22;13107;51.304;6.866;2022-08-01T06:58:43;19.40;99.90
25128;DHT22;13107;51.304;6.866;2022-08-01T07:02:45;19.30;99.90
25128;DHT22;13107;51.304;6.866;2022-08-01T07:06:47;19.30;99.90
25128;DHT22;13107;51.304;6.866;2022-08-01T07:10:49;19.50;99.90
25128;DHT22;13107;51.304;6.866;2022-08-01T07:14:51;19.60;99.90
25128;DHT22;13107;51.304;6.866;2022-08-01T07:18:53;19.80;99.90
25128;DHT22;13107;51.304;6.866;2022-08-01T07:22:55;19.90;99.90
25128;DHT22;13107;51.304;6.866;2022-08-01T07:26:57;19.90;99.90
25128;DHT22;13107;51.304;6.866;2022-08-01T07:31:21;19.70;99.90
25128;DHT22;13107;51.304;6.866;2022-08-01T07:35:24;20.20;99.90
25128;DHT22;13107;51.304;6.866;2022-08-01T07:39:26;20.50;99.90
25128;DHT22;13107;51.304;6.866;2022-08-01T07:43:28;20.70;99.90
25128;DHT22;13107;51.304;6.866;2022-08-01T07:47:37;20.80;99.90
25128;DHT22;13107;51.304;6.866;2022-08-01T07:51:39;20.90;99.90
25128;DHT22;13107;51.304;6.866;2022-08-01T07:55:41;21.00;99.90
25128;DHT22;13107;51.304;6.866;2022-08-01T07:59:46;21.20;99.90
25128;DHT22;13107;51.304;6.866;2022-08-01T08:03:48;21.20;99.90
25128;DHT22;13107;51.304;6.866;2022-08-01T08:07:49;21.20;99.90
25128;DHT22;13107;51.304;6.866;2022-08-01T08:11:51;21.00;99.90
25128;DHT22;13107;51.304;6.866;2022-08-01T08:15:53;20.90;99.90
25128;DHT22;13107;51.304;6.866;2022-08-01T08:19:55;21.00;99.90
25128;DHT22;13107;51.304;6.866;2022-08-01T08:23:56;21.20;99.90
25128;DHT22;13107;51.304;6.866;2022-08-01T08:28:17;21.10;99.90
25128;DHT22;13107;51.304;6.866;2022-08-01T08:32:19;21.00;99.90
25128;DHT22;13107;51.304;6.866;2022-08-01T08:36:22;20.90;99.90
25128;DHT22;13107;51.304;6.866;2022-08-01T08:40:35;21.20;99.90
25128;DHT22;13107;51.304;6.866;2022-08-01T08:44:41;21.70;99.90
25128;DHT22;13107;51.304;6.866;2022-08-01T08:48:45;21.70;99.90
25128;DHT22;13107;51.304;6.866;2022-08-01T08:52:47;21.40;99.90
25128;DHT22;13107;51.304;6.866;2022-08-01T08:56:53;21.10;99.90
25128;DHT22;13107;51.304;6.866;2022-08-01T09:00:55;21.50;99.90
25128;DHT22;13107;51.304;6.866;2022-08-01T09:04:57;22.70;99.90
25128;DHT22;13107;51.304;6.866;2022-08-01T09:09:00;23.80;99.90
25128;DHT22;13107;51.304;6.866;2022-08-01T09:13:13;24.20;99.90
25128;DHT22;13107;51.304;6.866;2022-08-01T09:17:15;23.60;99.90
25128;DHT22;13107;51.304;6.866;2022-08-01T09:21:19;23.50;99.90
25128;DHT22;13107;51.304;6.866;2022-08-01T09:25:29;23.60;99.90
25128;DHT22;13107;51.304;6.866;2022-08-01T09:29:50;23.70;99.90
25128;DHT22;13107;51.304;6.866;2022-08-01T09:34:02;23.50;99.90
25128;DHT22;13107;51.304;6.866;2022-08-01T09:38:14;23.10;99.90
25128;DHT22;13107;51.304;6.866;2022-08-01T09:42:20;23.10;99.90
25128;DHT22;13107;51.304;6.866;2022-08-01T09:46:30;23.10;99.90
25128;DHT22;13107;51.304;6.866;2022-08-01T09:50:41;23.10;99.90
25128;DHT22;13107;51.304;6.866;2022-08-01T09:54:55;23.10;99.90
25128;DHT22;13107;51.304;6.866;2022-08-01T09:58:59;23.20;99.90
25128;DHT22;13107;51.304;6.866;2022-08-01T10:03:21;24.00;99.90
25128;DHT22;13107;51.304;6.866;2022-08-01T10:07:25;24.70;99.90
25128;DHT22;13107;51.304;6.866;2022-08-01T10:11:43;25.60;99.90
25128;DHT22;13107;51.304;6.866;2022-08-01T10:15:46;25.10;99.90
25128;DHT22;13107;51.304;6.866;2022-08-01T10:19:50;24.80;99.90
25128;DHT22;13107;51.304;6.866;2022-08-01T10:23:58;24.60;99.90
25128;DHT22;13107;51.304;6.866;2022-08-01T10:28:13;23.90;99.90
25128;DHT22;13107;51.304;6.866;2022-08-01T10:32:19;23.50;99.90
25128;DHT22;13107;51.304;6.866;2022-08-01T10:36:22;23.80;99.90
25128;DHT22;13107;51.304;6.866;2022-08-01T10:40:32;24.80;99.90
25128;DHT22;13107;51.304;6.866;2022-08-01T10:44:36;25.40;99.90
25128;DHT22;13107;51.304;6.866;2022-08-01T10:53:17;25.40;99.90
25128;DHT22;13107;51.304;6.866;2022-08-01T10:57:45;25.40;99.90
25128;DHT22;13107;51.304;6.866;2022-08-01T11:02:01;25.60;99.90
25128;DHT22;13107;51.304;6.866;2022-08-01T11:06:04;25.40;99.90
25128;DHT22;13107;51.304;6.866;2022-08-01T11:10:37;25.40;99.90
25128;DHT22;13107;51.304;6.866;2022-08-01T11:19:00;25.60;99.90
25128;DHT22;13107;51.304;6.866;2022-08-01T11:27:22;25.80;99.90
25128;DHT22;13107;51.304;6.866;2022-08-01T11:31:26;26.20;99.90
25128;DHT22;13107;51.304;6.866;2022-08-01T11:35:28;26.40;99.90
25128;DHT22;13107;51.304;6.866;2022-08-01T11:39:30;26.40;99.90
25128;DHT22;13107;51.304;6.866;2022-08-01T11:44:07;26.30;99.90
25128;DHT22;13107;51.304;6.866;2022-08-01T11:48:18;25.80;99.90
25128;DHT22;13107;51.304;6.866;2022-08-01T11:52:26;25.00;99.90
25128;DHT22;13107;51.304;6.866;2022-08-01T11:56:28;25.00;99.90
25128;DHT22;13107;51.304;6.866;2022-08-01T12:00:32;25.00;99.90
25128;DHT22;13107;51.304;6.866;2022-08-01T12:08:52;24.60;99.90
25128;DHT22;13107;51.304;6.866;2022-08-01T12:12:58;24.60;99.90
25128;DHT22;13107;51.304;6.866;2022-08-01T12:17:00;25.30;99.90
25128;DHT22;13107;51.304;6.866;2022-08-01T12:21:03;25.70;99.90
25128;DHT22;13107;51.304;6.866;2022-08-01T12:25:08;25.80;99.90
25128;DHT22;13107;51.304;6.866;2022-08-01T12:29:10;25.80;99.90
25128;DHT22;13107;51.304;6.866;2022-08-01T12:33:17;25.40;99.90
25128;DHT22;13107;51.304;6.866;2022-08-01T12:37:19;24.90;99.90
25128;DHT22;13107;51.304;6.866;2022-08-01T12:41:22;24.90;99.90
25128;DHT22;13107;51.304;6.866;2022-08-01T12:45:25;24.80;99.90
25128;DHT22;13107;51.304;6.866;2022-08-01T12:49:28;24.60;99.90
25128;DHT22;13107;51.304;6.866;2022-08-01T12:53:34;24.90;99.90
25128;DHT22;13107;51.304;6.866;2022-08-01T12:57:44;24.90;99.90
25128;DHT22;13107;51.304;6.866;2022-08-01T13:01:46;25.20;99.90
25128;DHT22;13107;51.304;6.866;2022-08-01T13:05:56;25.70;99.90
25128;DHT22;13107;51.304;6.866;2022-08-01T13:09:58;25.70;99.90
25128;DHT22;13107;51.304;6.866;2022-08-01T13:14:00;25.60;99.90
25128;DHT22;13107;51.304;6.866;2022-08-01T13:18:22;25.30;99.90
25128;DHT22;13107;51.304;6.866;2022-08-01T13:22:36;25.40;99.90
25128;DHT22;13107;51.304;6.866;2022-08-01T13:26:48;25.50;99.90
25128;DHT22;13107;51.304;6.866;2022-08-01T13:30:59;25.50;99.90
25128;DHT22;13107;51.304;6.866;2022-08-01T13:35:03;25.20;99.90
25128;DHT22;13107;51.304;6.866;2022-08-01T13:39:06;25.20;99.90
25128;DHT22;13107;51.304;6.866;2022-08-01T13:43:27;25.30;99.90
25128;DHT22;13107;51.304;6.866;2022-08-01T13:47:48;25.30;99.90
25128;DHT22;13107;51.304;6.866;2022-08-01T13:52:10;25.30;99.90
25128;DHT22;13107;51.304;6.866;2022-08-01T13:56:12;25.10;99.90
25128;DHT22;13107;51.304;6.866;2022-08-01T14:00:14;24.80;99.90
25128;DHT22;13107;51.304;6.866;2022-08-01T14:04:16;24.80;99.90
25128;DHT22;13107;51.304;6.866;2022-08-01T14:08:18;24.70;99.90
25128;DHT22;13107;51.304;6.866;2022-08-01T14:12:20;24.50;99.90
25128;DHT22;13107;51.304;6.866;2022-08-01T14:16:24;24.60;99.90
25128;DHT22;13107;51.304;6.866;2022-08-01T14:20:26;24.40;99.90
25128;DHT22;13107;51.304;6.866;2022-08-01T14:24:28;24.10;99.90
25128;DHT22;13107;51.304;6.866;2022-08-01T14:28:30;24.00;99.90
25128;DHT22;13107;51.304;6.866;2022-08-01T14:32:32;24.00;99.90
25128;DHT22;13107;51.304;6.866;2022-08-01T14:36:34;24.00;99.90
25128;DHT22;13107;51.304;6.866;2022-08-01T14:40:39;24.00;99.90
25128;DHT22;13107;51.304;6.866;2022-08-01T14:44:42;24.10;99.90
25128;DHT22;13107;51.304;6.866;2022-08-01T14:48:50;24.10;99.90
25128;DHT22;13107;51.304;6.866;2022-08-01T14:52:52;24.20;99.90
25128;DHT22;13107;51.304;6.866;2022-08-01T14:56:54;24.20;99.90
25128;DHT22;13107;51.304;6.866;2022-08-01T15:00:56;24.10;99.90
25128;DHT22;13107;51.304;6.866;2022-08-01T15:05:00;24.40;99.90
25128;DHT22;13107;51.304;6.866;2022-08-01T15:09:02;24.50;99.90
25128;DHT22;13107;51.304;6.866;2022-08-01T15:13:10;24.50;99.90
25128;DHT22;13107;51.304;6.866;2022-08-01T15:17:11;24.30;99.90
25128;DHT22;13107;51.304;6.866;2022-08-01T15:21:13;24.50;99.90
25128;DHT22;13107;51.304;6.866;2022-08-01T15:25:35;24.40;99.90
25128;DHT22;13107;51.304;6.866;2022-08-01T15:29:42;24.40;99.90
25128;DHT22;13107;51.304;6.866;2022-08-01T15:33:44;24.00;99.90
25128;DHT22;13107;51.304;6.866;2022-08-01T15:37:46;23.80;99.90
25128;DHT22;13107;51.304;6.866;2022-08-01T15:41:48;23.50;99.90
25128;DHT22;13107;51.304;6.866;2022-08-01T15:45:50;23.40;99.90
25128;DHT22;13107;51.304;6.866;2022-08-01T15:49:52;23.50;99.90
25128;DHT22;13107;51.304;6.866;2022-08-01T15:53:53;23.40;99.90
25128;DHT22;13107;51.304;6.866;2022-08-01T15:57:55;23.40;99.90
25128;DHT22;13107;51.304;6.866;2022-08-01T16:01:57;23.40;99.90
25128;DHT22;13107;51.304;6.866;2022-08-01T16:05:59;23.20;99.90
25128;DHT22;13107;51.304;6.866;2022-08-01T16:10:00;23.20;99.90
25128;DHT22;13107;51.304;6.866;2022-08-01T16:14:02;23.20;99.90
25128;DHT22;13107;51.304;6.866;2022-08-01T16:18:23;23.10;99.90
25128;DHT22;13107;51.304;6.866;2022-08-01T16:22:43;23.00;99.90
25128;DHT22;13107;51.304;6.866;2022-08-01T16:27:03;22.90;99.90
25128;DHT22;13107;51.304;6.866;2022-08-01T16:31:06;22.90;99.90
25128;DHT22;13107;51.304;6.866;2022-08-01T16:35:27;23.00;99.90
25128;DHT22;13107;51.304;6.866;2022-08-01T16:39:37;23.10;99.90
25128;DHT22;13107;51.304;6.866;2022-08-01T16:43:38;23.20;99.90
25128;DHT22;13107;51.304;6.866;2022-08-01T16:47:46;23.10;99.90
25128;DHT22;13107;51.304;6.866;2022-08-01T16:51:49;23.10;99.90
25128;DHT22;13107;51.304;6.866;2022-08-01T16:55:51;23.10;99.90
25128;DHT22;13107;51.304;6.866;2022-08-01T16:59:52;23.20;99.90
25128;DHT22;13107;51.304;6.866;2022-08-01T17:03:54;23.10;99.90
25128;DHT22;13107;51.304;6.866;2022-08-01T17:08:02;23.00;99.90
25128;DHT22;13107;51.304;6.866;2022-08-01T17:12:12;23.20;99.90
25128;DHT22;13107;51.304;6.866;2022-08-01T17:16:23;23.20;99.90
25128;DHT22;13107;51.304;6.866;2022-08-01T17:20:24;23.20;99.90
25128;DHT22;13107;51.304;6.866;2022-08-01T17:24:26;23.10;99.90
25128;DHT22;13107;51.304;6.866;2022-08-01T17:28:28;23.00;99.90
25128;DHT22;13107;51.304;6.866;2022-08-01T17:32:30;23.10;99.90
25128;DHT22;13107;51.304;6.866;2022-08-01T17:36:31;23.00;99.90
25128;DHT22;13107;51.304;6.866;2022-08-01T17:40:33;22.90;99.90
25128;DHT22;13107;51.304;6.866;2022-08-01T17:44:42;22.60;99.90
25128;DHT22;13107;51.304;6.866;2022-08-01T17:48:49;22.20;99.90
25128;DHT22;13107;51.304;6.866;2022-08-01T17:52:51;22.20;99.90
25128;DHT22;13107;51.304;6.866;2022-08-01T17:56:53;22.20;99.90
25128;DHT22;13107;51.304;6.866;2022-08-01T18:00:55;22.00;99.90
25128;DHT22;13107;51.304;6.866;2022-08-01T18:04:56;22.00;99.90
25128;DHT22;13107;51.304;6.866;2022-08-01T18:08:59;22.00;99.90
25128;DHT22;13107;51.304;6.866;2022-08-01T18:13:02;21.90;99.90
25128;DHT22;13107;51.304;6.866;2022-08-01T18:17:06;21.90;99.90
25128;DHT22;13107;51.304;6.866;2022-08-01T18:21:12;21.80;99.90
25128;DHT22;13107;51.304;6.866;2022-08-01T18:25:14;21.70;99.90
25128;DHT22;13107;51.304;6.866;2022-08-01T18:29:17;21.40;99.90
25128;DHT22;13107;51.304;6.866;2022-08-01T18:33:39;21.30;99.90
25128;DHT22;13107;51.304;6.866;2022-08-01T18:37:41;21.20;99.90
25128;DHT22;13107;51.304;6.866;2022-08-01T18:41:55;21.00;99.90
25128;DHT22;13107;51.304;6.866;2022-08-01T18:45:58;20.90;99.90
25128;DHT22;13107;51.304;6.866;2022-08-01T18:50:01;20.70;99.90
25128;DHT22;13107;51.304;6.866;2022-08-01T18:54:03;20.50;99.90
25128;DHT22;13107;51.304;6.866;2022-08-01T18:58:05;20.40;99.90
25128;DHT22;13107;51.304;6.866;2022-08-01T19:02:07;20.20;99.90
25128;DHT22;13107;51.304;6.866;2022-08-01T19:06:08;19.90;99.90
25128;DHT22;13107;51.304;6.866;2022-08-01T19:10:10;19.70;99.90
25128;DHT22;13107;51.304;6.866;2022-08-01T19:14:12;19.60;99.90
25128;DHT22;13107;51.304;6.866;2022-08-01T19:18:14;19.40;99.90
25128;DHT22;13107;51.304;6.866;2022-08-01T19:22:16;19.20;99.90
25128;DHT22;13107;51.304;6.866;2022-08-01T19:26:25;19.10;99.90
25128;DHT22;13107;51.304;6.866;2022-08-01T19:30:27;18.80;99.90
25128;DHT22;13107;51.304;6.866;2022-08-01T19:34:35;18.60;99.90
25128;DHT22;13107;51.304;6.866;2022-08-01T19:38:37;18.40;99.90
25128;DHT22;13107;51.304;6.866;2022-08-01T19:42:40;18.30;99.90
25128;DHT22;13107;51.304;6.866;2022-08-01T19:46:42;18.10;99.90
25128;DHT22;13107;51.304;6.866;2022-08-01T19:50:45;18.00;99.90
25128;DHT22;13107;51.304;6.866;2022-08-01T19:54:49;17.80;99.90
25128;DHT22;13107;51.304;6.866;2022-08-01T19:58:54;17.70;99.90
25128;DHT22;13107;51.304;6.866;2022-08-01T20:03:02;17.50;99.90
25128;DHT22;13107;51.304;6.866;2022-08-01T20:07:12;17.40;99.90
25128;DHT22;13107;51.304;6.866;2022-08-01T20:11:14;17.30;99.90
25128;DHT22;13107;51.304;6.866;2022-08-01T20:15:22;17.10;99.90
25128;DHT22;13107;51.304;6.866;2022-08-01T20:19:25;17.00;99.90
25128;DHT22;13107;51.304;6.866;2022-08-01T20:23:28;16.90;99.90
25128;DHT22;13107;51.304;6.866;2022-08-01T20:27:31;16.80;99.90
25128;DHT22;13107;51.304;6.866;2022-08-01T20:31:34;16.70;99.90
25128;DHT22;13107;51.304;6.866;2022-08-01T20:35:45;16.60;99.90
25128;DHT22;13107;51.304;6.866;2022-08-01T20:39:55;16.50;99.90
25128;DHT22;13107;51.304;6.866;2022-08-01T20:44:00;16.40;99.90
25128;DHT22;13107;51.304;6.866;2022-08-01T20:48:02;16.30;99.90
25128;DHT22;13107;51.304;6.866;2022-08-01T20:52:04;16.20;99.90
25128;DHT22;13107;51.304;6.866;2022-08-01T20:56:35;16.10;99.90
25128;DHT22;13107;51.304;6.866;2022-08-01T21:00:38;16.00;99.90
25128;DHT22;13107;51.304;6.866;2022-08-01T21:04:57;15.90;99.90
25128;DHT22;13107;51.304;6.866;2022-08-01T21:09:04;15.90;99.90
25128;DHT22;13107;51.304;6.866;2022-08-01T21:13:12;15.70;99.90
25128;DHT22;13107;51.304;6.866;2022-08-01T21:22:22;15.60;99.90
25128;DHT22;13107;51.304;6.866;2022-08-01T21:26:28;15.50;99.90
25128;DHT22;13107;51.304;6.866;2022-08-01T21:30:31;15.40;99.90
25128;DHT22;13107;51.304;6.866;2022-08-01T21:34:34;15.30;99.90
25128;DHT22;13107;51.304;6.866;2022-08-01T21:38:39;15.20;99.90
25128;DHT22;13107;51.304;6.866;2022-08-01T21:42:42;15.20;99.90
25128;DHT22;13107;51.304;6.866;2022-08-01T21:46:47;15.10;99.90
25128;DHT22;13107;51.304;6.866;2022-08-01T21:50:57;15.00;99.90
25128;DHT22;13107;51.304;6.866;2022-08-01T21:55:10;14.90;99.90
25128;DHT22;13107;51.304;6.866;2022-08-01T22:03:47;14.80;99.90
25128;DHT22;13107;51.304;6.866;2022-08-01T22:07:58;14.70;99.90
25128;DHT22;13107;51.304;6.866;2022-08-01T22:12:03;14.70;99.90
25128;DHT22;13107;51.304;6.866;2022-08-01T22:16:06;14.60;99.90
25128;DHT22;13107;51.304;6.866;2022-08-01T22:20:10;14.60;99.90
25128;DHT22;13107;51.304;6.866;2022-08-01T22:24:12;14.50;99.90
25128;DHT22;13107;51.304;6.866;2022-08-01T22:28:14;14.50;99.90
25128;DHT22;13107;51.304;6.866;2022-08-01T22:32:16;14.60;99.90
25128;DHT22;13107;51.304;6.866;2022-08-01T22:36:19;14.50;99.90
25128;DHT22;13107;51.304;6.866;2022-08-01T22:40:21;14.60;99.90
25128;DHT22;13107;51.304;6.866;2022-08-01T22:44:28;14.50;99.90
25128;DHT22;13107;51.304;6.866;2022-08-01T22:48:50;14.50;99.90
25128;DHT22;13107;51.304;6.866;2022-08-01T22:57:28;14.30;99.90
25128;DHT22;13107;51.304;6.866;2022-08-01T23:01:31;14.20;99.90
25128;DHT22;13107;51.304;6.866;2022-08-01T23:05:40;14.10;99.90
25128;DHT22;13107;51.304;6.866;2022-08-01T23:09:53;14.10;99.90
25128;DHT22;13107;51.304;6.866;2022-08-01T23:13:57;13.90;99.90
25128;DHT22;13107;51.304;6.866;2022-08-01T23:18:01;13.90;99.90
25128;DHT22;13107;51.304;6.866;2022-08-01T23:22:05;13.90;99.90
25128;DHT22;13107;51.304;6.866;2022-08-01T23:26:08;13.90;99.90
25128;DHT22;13107;51.304;6.866;2022-08-01T23:30:12;13.80;99.90
25128;DHT22;13107;51.304;6.866;2022-08-01T23:34:14;13.80;99.90
25128;DHT22;13107;51.304;6.866;2022-08-01T23:38:20;13.80;99.90
25128;DHT22;13107;51.304;6.866;2022-08-01T23:42:22;13.70;99.90
25128;DHT22;13107;51.304;6.866;2022-08-01T23:46:24;13.70;99.90
25128;DHT22;13107;51.304;6.866;2022-08-01T23:50:26;13.60;99.90
25128;DHT22;13107;51.304;6.866;2022-08-01T23:54:29;13.60;99.90
25128;DHT22;13107;51.304;6.866;2022-08-01T23:58:32;13.50;99.90
